createdAt,value
2022-12-15T00:02:35.703Z,99899.06
2022-12-15T00:05:22.763Z,99896.28
2022-12-15T00:08:08.774Z,99890.59
2022-12-15T00:10:54.816Z,99880.72
2022-12-15T00:13:41.302Z,99881.03
2022-12-15T00:16:27.728Z,99876.22
2022-12-15T00:19:13.770Z,99872.09
2022-12-15T00:21:59.753Z,99868.88
2022-12-15T00:24:49.677Z,99860.56
2022-12-15T00:27:35.844Z,99864.47
2022-12-15T00:30:25.420Z,99863.38
2022-12-15T00:33:11.310Z,99859.97
2022-12-15T00:35:57.075Z,99868.06
2022-12-15T00:38:45.709Z,99871.94
2022-12-15T00:41:17.859Z,99871.38
2022-12-15T00:43:45.828Z,99880.50
2022-12-15T00:46:32.566Z,99882.56
2022-12-15T00:49:00.276Z,99883.31
2022-12-15T00:51:46.408Z,99887.06
2022-12-15T00:54:32.192Z,99892.72
2022-12-15T00:57:18.089Z,99895.06
2022-12-15T01:00:03.977Z,99896.97
2022-12-15T01:02:50.211Z,99897.56
2022-12-15T01:05:35.864Z,99900.22
2022-12-15T01:08:21.776Z,99902.84
2022-12-15T01:11:07.577Z,99909.19
2022-12-15T01:13:53.377Z,99896.47
2022-12-15T01:16:39.356Z,99904.78
2022-12-15T01:19:26.885Z,99900.81
2022-12-15T01:21:54.257Z,99907.31
2022-12-15T01:24:21.658Z,99908.44
2022-12-15T01:26:49.087Z,99915.78
2022-12-15T01:29:16.483Z,99927.50
2022-12-15T01:31:44.084Z,99922.56
2022-12-15T01:34:11.544Z,99928.69
2022-12-15T01:36:41.845Z,99922.19
2022-12-15T01:39:09.242Z,99916.22
2022-12-15T01:41:36.572Z,99921.06
2022-12-15T01:44:24.572Z,99929.06
2022-12-15T01:46:55.330Z,99923.47
2022-12-15T01:49:29.400Z,99936.28
2022-12-15T01:52:00.373Z,99931.47
2022-12-15T01:54:40.787Z,99936.78
2022-12-15T01:57:13.987Z,99927.31
2022-12-15T01:59:50.771Z,99925.63
2022-12-15T02:02:21.434Z,99925.81
2022-12-15T02:04:51.629Z,99925.47
2022-12-15T02:07:19.773Z,99924.34
2022-12-15T02:09:52.729Z,99934.31
2022-12-15T02:12:27.084Z,99934.19
2022-12-15T02:15:17.434Z,99938.53
2022-12-15T02:17:57.778Z,99938.22
2022-12-15T02:20:53.283Z,99944.09
2022-12-15T02:23:39.173Z,99947.63
2022-12-15T02:26:25.427Z,99951.22
2022-12-15T02:29:24.273Z,99955.25
2022-12-15T02:32:31.177Z,99936.09
2022-12-15T02:35:06.790Z,99933.66
2022-12-15T02:37:39.677Z,99940.06
2022-12-15T02:40:10.022Z,99937.13
2022-12-15T02:42:43.682Z,99929.66
2022-12-15T02:45:16.820Z,99939.03
2022-12-15T02:47:54.157Z,99942.13
2022-12-15T02:50:52.328Z,99941.81
2022-12-15T02:53:29.047Z,99949.16
2022-12-15T02:56:05.627Z,99950.97
2022-12-15T02:59:02.863Z,99923.50
2022-12-15T03:01:36.476Z,99923.69
2022-12-15T03:04:06.951Z,99916.84
2022-12-15T03:06:34.365Z,99913.94
2022-12-15T03:09:20.080Z,99910.69
2022-12-15T03:11:49.476Z,99909.09
2022-12-15T03:14:17.916Z,99904.22
2022-12-15T03:16:45.329Z,99910.44
2022-12-15T03:19:12.735Z,99930.34
2022-12-15T03:21:40.325Z,99939.25
2022-12-15T03:24:07.971Z,99954.63
2022-12-15T03:26:35.721Z,99947.88
2022-12-15T03:29:03.515Z,99946.34
2022-12-15T03:31:31.027Z,99955.94
2022-12-15T03:33:58.432Z,99944.28
2022-12-15T03:36:25.731Z,99936.50
2022-12-15T03:38:53.065Z,99939.56
2022-12-15T03:41:20.404Z,99940.41
2022-12-15T03:43:49.694Z,99943.22
2022-12-15T03:46:17.543Z,99953.38
2022-12-15T03:48:44.904Z,99946.84
2022-12-15T03:51:12.267Z,99966.28
2022-12-15T03:53:39.576Z,99986.34
2022-12-15T03:56:07.213Z,99973.66
2022-12-15T03:58:34.537Z,99982.75
2022-12-15T04:01:12.990Z,99972.91
2022-12-15T04:03:40.466Z,99987.72
2022-12-15T04:06:08.421Z,99986.53
2022-12-15T04:08:35.789Z,99983.78
2022-12-15T04:11:03.453Z,99998.53
2022-12-15T04:13:31.059Z,100000.94
2022-12-15T04:16:02.196Z,100004.41
2022-12-15T04:18:29.928Z,100004.25
2022-12-15T04:20:57.475Z,100012.78
2022-12-15T04:23:24.974Z,100025.56
2022-12-15T04:26:11.160Z,100016.75
2022-12-15T04:28:57.142Z,100009.06
2022-12-15T04:31:52.913Z,100001.00
2022-12-15T04:34:42.003Z,100013.56
2022-12-15T04:37:30.365Z,100014.94
2022-12-15T04:40:18.330Z,100015.28
2022-12-15T04:43:06.988Z,100016.19
2022-12-15T04:45:55.931Z,100032.31
2022-12-15T04:48:42.105Z,100037.69
2022-12-15T04:51:28.208Z,100033.91
2022-12-15T04:54:14.411Z,100032.38
2022-12-15T04:57:00.075Z,100033.00
2022-12-15T04:59:45.841Z,100042.09
2022-12-15T05:02:31.727Z,100047.97
2022-12-15T05:05:17.550Z,100040.25
2022-12-15T05:08:03.799Z,100038.06
2022-12-15T05:10:49.708Z,100033.19
2022-12-15T05:13:35.741Z,100036.84
2022-12-15T05:16:23.651Z,100019.38
2022-12-15T05:19:09.872Z,100023.78
2022-12-15T05:21:55.995Z,100031.75
2022-12-15T05:24:41.999Z,100034.38
2022-12-15T05:27:28.027Z,100020.88
2022-12-15T05:30:13.762Z,100033.84
2022-12-15T05:32:41.132Z,100029.09
2022-12-15T05:35:08.612Z,100039.66
2022-12-15T05:37:36.034Z,100033.06
2022-12-15T05:40:06.958Z,100042.38
2022-12-15T05:42:34.320Z,100055.00
2022-12-15T05:45:01.792Z,100077.94
2022-12-15T05:47:29.214Z,100082.19
2022-12-15T05:49:56.644Z,100081.69
2022-12-15T05:52:24.013Z,100078.00
2022-12-15T05:54:51.653Z,100086.38
2022-12-15T05:57:19.239Z,100085.47
2022-12-15T05:59:46.698Z,100077.75
2022-12-15T06:02:14.103Z,100073.47
2022-12-15T06:04:41.736Z,100071.09
2022-12-15T06:07:09.157Z,100070.50
2022-12-15T06:09:38.347Z,100085.81
2022-12-15T06:12:05.966Z,100078.84
2022-12-15T06:14:33.449Z,100087.09
2022-12-15T06:17:00.972Z,100081.31
2022-12-15T06:19:28.405Z,100101.28
2022-12-15T06:21:56.445Z,100094.41
2022-12-15T06:24:24.773Z,100111.25
2022-12-15T06:26:52.216Z,100116.28
2022-12-15T06:29:19.571Z,100116.28
2022-12-15T06:31:47.085Z,100108.66
2022-12-15T06:34:16.336Z,100123.13
2022-12-15T06:36:44.238Z,100141.78
2022-12-15T06:39:14.194Z,100149.59
2022-12-15T06:41:42.630Z,100152.28
2022-12-15T06:44:15.034Z,100153.34
2022-12-15T06:46:43.651Z,100150.59
2022-12-15T06:49:11.309Z,100165.44
2022-12-15T06:51:38.775Z,100165.50
2022-12-15T06:54:11.201Z,100177.50
2022-12-15T06:56:39.354Z,100184.78
2022-12-15T06:59:08.557Z,100181.41
2022-12-15T07:01:36.261Z,100187.88
2022-12-15T07:04:05.618Z,100191.94
2022-12-15T07:06:38.077Z,100175.78
2022-12-15T07:09:08.163Z,100171.31
2022-12-15T07:11:36.901Z,100176.75
2022-12-15T07:14:04.969Z,100177.06
2022-12-15T07:16:32.846Z,100182.19
2022-12-15T07:19:00.297Z,100184.16
2022-12-15T07:21:27.737Z,100176.94
2022-12-15T07:23:56.583Z,100191.06
2022-12-15T07:26:24.884Z,100198.09
2022-12-15T07:28:53.767Z,100187.19
2022-12-15T07:31:22.302Z,100195.03
2022-12-15T07:33:52.443Z,100209.13
2022-12-15T07:36:23.407Z,100216.25
2022-12-15T07:38:51.739Z,100218.38
2022-12-15T07:41:23.333Z,100227.19
2022-12-15T07:43:50.838Z,100222.41
2022-12-15T07:46:18.779Z,100220.78
2022-12-15T07:48:50.862Z,100224.91
2022-12-15T07:51:22.188Z,100225.53
2022-12-15T07:53:50.737Z,100254.69
2022-12-15T07:56:19.362Z,100241.16
2022-12-15T07:58:46.935Z,100246.88
2022-12-15T08:01:15.485Z,100256.22
2022-12-15T08:03:43.349Z,100275.84
2022-12-15T08:06:13.150Z,100261.88
2022-12-15T08:08:41.382Z,100261.50
2022-12-15T08:11:12.416Z,100271.06
2022-12-15T08:16:34.623Z,100258.69
2022-12-15T08:19:05.460Z,100270.06
2022-12-15T08:21:33.899Z,100267.53
2022-12-15T08:24:01.817Z,100260.16
2022-12-15T08:26:30.991Z,100277.72
2022-12-15T08:31:54.139Z,100249.56
2022-12-15T08:34:22.081Z,100248.28
2022-12-15T08:36:50.412Z,100243.69
2022-12-15T08:39:18.108Z,100231.16
2022-12-15T08:41:45.501Z,100227.00
2022-12-15T08:44:13.084Z,100239.84
2022-12-15T08:46:40.459Z,100232.28
2022-12-15T08:49:08.789Z,100234.16
2022-12-15T08:51:36.552Z,100227.72
2022-12-15T08:54:04.131Z,100238.84
2022-12-15T08:56:31.563Z,100237.47
2022-12-15T08:59:02.425Z,100233.09
2022-12-15T09:01:32.682Z,100224.28
2022-12-15T09:04:01.495Z,100243.06
2022-12-15T09:06:31.962Z,100247.72
2022-12-15T09:09:04.314Z,100250.66
2022-12-15T09:11:31.892Z,100258.44
2022-12-15T09:13:59.432Z,100257.19
2022-12-15T09:16:28.019Z,100264.63
2022-12-15T09:18:58.282Z,100269.78
2022-12-15T09:21:28.334Z,100265.22
2022-12-15T09:24:00.544Z,100257.06
2022-12-15T09:26:32.147Z,100266.09
2022-12-15T09:29:00.382Z,100273.88
2022-12-15T09:31:30.943Z,100273.81
2022-12-15T09:34:00.469Z,100270.53
2022-12-15T09:36:29.993Z,100247.28
2022-12-15T09:38:57.409Z,100252.41
2022-12-15T09:41:29.541Z,100240.00
2022-12-15T09:44:13.387Z,100248.16
2022-12-15T09:47:22.513Z,100228.50
2022-12-15T09:49:57.327Z,100215.69
2022-12-15T09:52:29.290Z,100228.13
2022-12-15T09:54:58.904Z,100221.84
2022-12-15T09:57:40.440Z,100232.56
2022-12-15T10:00:21.728Z,100238.78
2022-12-15T10:02:52.165Z,100243.34
2022-12-15T10:06:07.360Z,100253.19
2022-12-15T10:08:30.900Z,100262.09
2022-12-15T10:11:04.618Z,100280.06
2022-12-15T10:13:50.775Z,100252.13
2022-12-15T10:16:24.249Z,100234.75
2022-12-15T10:19:07.812Z,100218.91
2022-12-15T10:21:36.768Z,100222.53
2022-12-15T10:24:37.268Z,100204.59
2022-12-15T10:27:20.674Z,100216.13
2022-12-15T10:30:20.718Z,100208.94
2022-12-15T10:33:09.384Z,100212.72
2022-12-15T10:35:39.622Z,100225.94
2022-12-15T10:38:37.914Z,100233.19
2022-12-15T10:41:12.078Z,100253.09
2022-12-15T10:43:42.022Z,100245.19
2022-12-15T10:46:22.163Z,100254.81
2022-12-15T10:48:51.749Z,100245.53
2022-12-15T10:51:27.497Z,100247.09
2022-12-15T10:54:06.732Z,100245.28
2022-12-15T10:56:35.429Z,100250.75
2022-12-15T10:59:27.986Z,100247.28
2022-12-15T11:01:55.605Z,100244.31
2022-12-15T11:04:31.568Z,100227.69
2022-12-15T11:07:04.019Z,100234.78
2022-12-15T11:09:36.169Z,100228.13
2022-12-15T11:12:39.190Z,100222.34
2022-12-15T11:15:21.759Z,100212.34
2022-12-15T11:18:01.947Z,100183.88
2022-12-15T11:20:35.494Z,100192.25
2022-12-15T11:23:09.704Z,100191.38
2022-12-15T11:25:43.050Z,100187.34
2022-12-15T11:28:43.284Z,100196.34
2022-12-15T11:31:36.894Z,100203.84
2022-12-15T11:34:14.899Z,100194.84
2022-12-15T11:36:51.457Z,100202.75
2022-12-15T11:39:49.210Z,100198.16
2022-12-15T11:42:49.966Z,100179.84
2022-12-15T11:45:45.817Z,100166.75
2022-12-15T11:48:47.664Z,100149.38
2022-12-15T11:51:43.992Z,100153.56
2022-12-15T11:54:24.906Z,100122.19
2022-12-15T11:57:11.244Z,100129.88
2022-12-15T12:00:01.911Z,100098.38
2022-12-15T12:02:47.507Z,100111.97
2022-12-15T12:06:01.089Z,100093.00
2022-12-15T12:08:52.669Z,100082.59
2022-12-15T12:11:32.211Z,100066.69
2022-12-15T12:14:26.910Z,100065.41
2022-12-15T12:17:06.698Z,100062.50
2022-12-15T12:19:50.659Z,100052.59
2022-12-15T12:22:24.500Z,100063.56
2022-12-15T12:25:15.455Z,100048.50
2022-12-15T12:27:58.631Z,100060.88
2022-12-15T12:30:33.669Z,100045.69
2022-12-15T12:33:27.340Z,100035.97
2022-12-15T12:36:00.632Z,100058.44
2022-12-15T12:38:37.279Z,100031.84
2022-12-15T12:41:04.882Z,100036.69
2022-12-15T12:44:22.462Z,100013.44
2022-12-15T12:46:53.795Z,100015.41
2022-12-15T12:49:26.885Z,100019.38
2022-12-15T12:52:00.846Z,100007.56
2022-12-15T12:54:31.289Z,100022.53
2022-12-15T12:56:58.976Z,100024.00
2022-12-15T12:59:29.096Z,100036.38
2022-12-15T13:02:15.719Z,100025.22
2022-12-15T13:04:50.090Z,100004.41
2022-12-15T13:07:36.404Z,100018.66
2022-12-15T13:10:20.067Z,100011.47
2022-12-15T13:12:54.938Z,100014.03
2022-12-15T13:15:31.511Z,100013.59
2022-12-15T13:18:21.054Z,100014.84
2022-12-15T13:20:50.969Z,99999.16
2022-12-15T13:23:19.483Z,100005.88
2022-12-15T13:25:55.975Z,100001.44
2022-12-15T13:28:31.309Z,100004.63
2022-12-15T13:31:17.607Z,100010.66
2022-12-15T13:33:51.252Z,100018.00
2022-12-15T13:36:36.837Z,100013.25
2022-12-15T13:39:29.903Z,99984.22
2022-12-15T13:44:55.048Z,100013.06
2022-12-15T13:47:26.083Z,100017.19
2022-12-15T13:50:02.819Z,100030.22
2022-12-15T13:53:18.844Z,100027.94
2022-12-15T13:55:52.642Z,100020.56
2022-12-15T13:58:21.878Z,100036.63
2022-12-15T14:00:58.039Z,100021.47
2022-12-15T14:03:30.253Z,100034.75
2022-12-15T14:06:00.198Z,100037.06
2022-12-15T14:08:31.065Z,100033.66
2022-12-15T14:13:54.153Z,100049.84
2022-12-15T14:16:23.136Z,100056.84
2022-12-15T14:19:13.610Z,100050.47
2022-12-15T14:21:49.221Z,100041.47
2022-12-15T14:27:25.163Z,100030.28
2022-12-15T14:30:11.406Z,100033.97
2022-12-15T14:32:39.602Z,100015.69
2022-12-15T14:35:17.248Z,100004.50
2022-12-15T14:37:45.815Z,100006.19
2022-12-15T14:40:21.384Z,100006.91
2022-12-15T14:42:54.914Z,100008.59
2022-12-15T14:45:26.957Z,99991.22
2022-12-15T14:50:48.231Z,99979.53
2022-12-15T14:53:18.519Z,99988.91
2022-12-15T14:55:46.469Z,99976.13
2022-12-15T14:58:43.623Z,99988.44
2022-12-15T15:01:41.436Z,99972.94
2022-12-15T15:03:16.014Z,100043.66
2022-12-15T15:04:32.547Z,99973.47
2022-12-15T15:07:02.856Z,99953.59
2022-12-15T15:09:33.550Z,99967.06
2022-12-15T15:12:04.390Z,99956.00
2022-12-15T15:14:44.101Z,99958.06
2022-12-15T15:17:20.425Z,99952.09
2022-12-15T15:19:54.994Z,99946.59
2022-12-15T15:22:36.351Z,99939.41
2022-12-15T15:25:39.975Z,99934.03
2022-12-15T15:28:20.577Z,99925.94
2022-12-15T15:30:56.355Z,99913.78
2022-12-15T15:33:25.289Z,99909.69
2022-12-15T15:35:58.245Z,99903.50
2022-12-15T15:38:38.650Z,99887.63
2022-12-15T15:41:21.157Z,99874.66
2022-12-15T15:43:48.551Z,99867.56
2022-12-15T15:46:19.766Z,99864.38
2022-12-15T15:48:57.662Z,99858.19
2022-12-15T15:51:30.204Z,99839.41
2022-12-15T15:54:04.648Z,99835.03
2022-12-15T15:56:32.089Z,99822.06
2022-12-15T15:59:09.680Z,99804.50
2022-12-15T16:01:37.055Z,99797.41
2022-12-15T16:04:06.286Z,99784.72
2022-12-15T16:06:34.155Z,99772.34
2022-12-15T16:09:01.921Z,99770.34
2022-12-15T16:11:33.283Z,99762.84
2022-12-15T16:14:01.541Z,99768.97
2022-12-15T16:16:32.232Z,99769.47
2022-12-15T16:18:59.959Z,99776.75
2022-12-15T16:21:27.920Z,99771.16
2022-12-15T16:23:57.018Z,99776.75
2022-12-15T16:26:29.942Z,99768.97
2022-12-15T16:28:57.818Z,99763.28
2022-12-15T16:31:37.186Z,99759.97
2022-12-15T16:34:07.172Z,99756.38
2022-12-15T16:36:35.211Z,99742.59
2022-12-15T16:39:04.118Z,99724.53
2022-12-15T16:41:31.535Z,99726.41
2022-12-15T16:43:58.964Z,99712.44
2022-12-15T16:46:26.772Z,99713.06
2022-12-15T16:48:54.835Z,99703.41
2022-12-15T16:51:39.422Z,99699.28
2022-12-15T16:54:07.265Z,99699.41
2022-12-15T16:56:34.800Z,99699.28
2022-12-15T16:59:31.550Z,99697.69
2022-12-15T17:01:50.810Z,99702.66
2022-12-15T17:04:21.569Z,99691.81
2022-12-15T17:06:49.338Z,99699.72
2022-12-15T17:09:21.904Z,99697.03
2022-12-15T17:11:52.076Z,99683.28
2022-12-15T17:14:19.674Z,99665.63
2022-12-15T17:16:47.077Z,99648.09
2022-12-15T17:19:19.351Z,99636.09
2022-12-15T17:21:52.383Z,99673.56
2022-12-15T17:24:22.247Z,99690.09
2022-12-15T17:26:50.561Z,99689.41
2022-12-15T17:29:23.666Z,99694.41
2022-12-15T17:31:51.643Z,99692.09
2022-12-15T17:34:30.305Z,99685.81
2022-12-15T17:36:59.676Z,99680.81
2022-12-15T17:39:30.841Z,99684.69
2022-12-15T17:42:00.413Z,99688.94
2022-12-15T17:44:34.273Z,99696.09
2022-12-15T17:47:05.405Z,99704.19
2022-12-15T17:49:36.623Z,99711.84
2022-12-15T17:52:28.068Z,99727.41
2022-12-15T17:54:56.486Z,99738.13
2022-12-15T17:57:24.359Z,99733.31
2022-12-15T17:59:51.914Z,99727.88
2022-12-15T18:02:19.867Z,99726.69
2022-12-15T18:04:47.337Z,99733.78
2022-12-15T18:07:22.800Z,99738.16
2022-12-15T18:09:52.179Z,99740.59
2022-12-15T18:12:25.043Z,99739.84
2022-12-15T18:14:53.702Z,99727.19
2022-12-15T18:17:21.653Z,99733.88
2022-12-15T18:19:49.371Z,99736.47
2022-12-15T18:22:22.376Z,99730.28
2022-12-15T18:24:52.869Z,99733.50
2022-12-15T18:27:29.095Z,99728.09
2022-12-15T18:29:57.120Z,99721.44
2022-12-15T18:32:27.073Z,99711.28
2022-12-15T18:34:55.620Z,99699.50
2022-12-15T18:37:24.962Z,99686.31
2022-12-15T18:39:53.059Z,99674.75
2022-12-15T18:42:22.944Z,99675.63
2022-12-15T18:44:53.621Z,99648.56
2022-12-15T18:47:23.379Z,99650.34
2022-12-15T18:49:51.064Z,99637.19
2022-12-15T18:52:20.998Z,99636.81
2022-12-15T18:54:53.287Z,99636.94
2022-12-15T18:57:32.678Z,99631.25
2022-12-15T19:00:07.919Z,99631.06
2022-12-15T19:02:35.537Z,99622.06
2022-12-15T19:05:02.936Z,99618.06
2022-12-15T19:07:30.622Z,99612.09
2022-12-15T19:09:58.489Z,99596.72
2022-12-15T19:12:25.853Z,99595.69
2022-12-15T19:14:55.145Z,99586.69
2022-12-15T19:17:42.599Z,99590.16
2022-12-15T19:20:37.781Z,99585.56
2022-12-15T19:23:06.878Z,99588.84
2022-12-15T19:25:35.356Z,99587.66
2022-12-15T19:28:02.962Z,99594.00
2022-12-15T19:30:36.942Z,99594.69
2022-12-15T19:33:10.096Z,99592.34
2022-12-15T19:35:40.050Z,99592.81
2022-12-15T19:38:08.416Z,99591.69
2022-12-15T19:40:37.677Z,99588.97
2022-12-15T19:43:05.565Z,99588.66
2022-12-15T19:45:33.246Z,99592.94
2022-12-15T19:48:00.892Z,99607.25
2022-12-15T19:50:36.970Z,99612.13
2022-12-15T19:53:26.085Z,99618.81
2022-12-15T19:56:01.339Z,99623.44
2022-12-15T19:58:30.092Z,99617.84
2022-12-15T20:01:05.248Z,99589.13
2022-12-15T20:03:33.810Z,99552.78
2022-12-15T20:06:02.950Z,99544.22
2022-12-15T20:08:35.492Z,99521.69
2022-12-15T20:11:03.639Z,99498.75
2022-12-15T20:13:31.649Z,99487.97
2022-12-15T20:15:59.237Z,99489.56
2022-12-15T20:18:26.584Z,99476.69
2022-12-15T20:20:56.860Z,99473.19
2022-12-15T20:23:26.609Z,99473.72
2022-12-15T20:25:57.891Z,99479.28
2022-12-15T20:28:28.347Z,99487.31
2022-12-15T20:30:57.392Z,99495.72
2022-12-15T20:33:24.866Z,99486.34
2022-12-15T20:35:52.882Z,99482.56
2022-12-15T20:38:33.563Z,99485.88
2022-12-15T20:41:02.821Z,99499.69
2022-12-15T20:43:32.547Z,99527.00
2022-12-15T20:46:07.697Z,99540.75
2022-12-15T20:48:38.437Z,99537.47
2022-12-15T20:51:09.824Z,99536.94
2022-12-15T20:53:38.625Z,99530.88
2022-12-15T20:56:06.348Z,99532.59
2022-12-15T20:58:41.870Z,99529.91
2022-12-15T21:01:33.222Z,99544.84
2022-12-15T21:04:03.620Z,99552.16
2022-12-15T21:06:34.968Z,99564.06
2022-12-15T21:09:02.811Z,99563.22
2022-12-15T21:11:32.835Z,99561.09
2022-12-15T21:14:04.211Z,99556.97
2022-12-15T21:16:32.802Z,99570.00
2022-12-15T21:19:19.705Z,99573.88
2022-12-15T21:21:55.323Z,99587.28
2022-12-15T21:24:25.658Z,99591.13
2022-12-15T21:26:53.570Z,99595.41
2022-12-15T21:29:24.632Z,99598.44
2022-12-15T21:31:52.264Z,99609.81
2022-12-15T21:34:19.591Z,99611.78
2022-12-15T21:36:52.124Z,99597.56
2022-12-15T21:39:26.800Z,99594.88
2022-12-15T21:41:55.093Z,99581.72
2022-12-15T21:44:22.616Z,99585.25
2022-12-15T21:46:50.231Z,99585.13
2022-12-15T21:49:20.537Z,99574.34
2022-12-15T21:51:55.013Z,99573.75
2022-12-15T21:54:30.598Z,99569.28
2022-12-15T21:57:02.756Z,99559.59
2022-12-15T21:59:32.219Z,99555.47
2022-12-15T22:02:00.854Z,99557.88
2022-12-15T22:04:36.561Z,99565.97
2022-12-15T22:07:06.649Z,99567.56
2022-12-15T22:09:34.026Z,99558.38
2022-12-15T22:12:02.044Z,99547.59
2022-12-15T22:14:33.300Z,99530.31
2022-12-15T22:17:17.110Z,99516.84
2022-12-15T22:19:44.863Z,99514.78
2022-12-15T22:22:13.873Z,99518.19
2022-12-15T22:24:41.460Z,99520.09
2022-12-15T22:27:20.052Z,99510.41
2022-12-15T22:29:50.958Z,99517.75
2022-12-15T22:32:18.385Z,99519.91
2022-12-15T22:34:45.758Z,99515.78
2022-12-15T22:37:13.615Z,99515.47
2022-12-15T22:39:40.992Z,99518.50
2022-12-15T22:42:16.280Z,99518.03
2022-12-15T22:44:45.240Z,99516.59
2022-12-15T22:47:12.729Z,99517.75
2022-12-15T22:49:41.007Z,99510.88
2022-12-15T22:52:19.583Z,99503.78
2022-12-15T22:55:06.093Z,99500.91
2022-12-15T22:57:34.581Z,99505.03
2022-12-15T23:00:08.076Z,99506.00
2022-12-15T23:02:39.377Z,99510.75
2022-12-15T23:05:07.810Z,99513.78
2022-12-15T23:07:35.604Z,99509.16
2022-12-15T23:10:22.339Z,99514.88
2022-12-15T23:12:54.345Z,99516.16
2022-12-15T23:15:42.498Z,99525.53
2022-12-15T23:18:10.786Z,99519.34
2022-12-15T23:20:38.172Z,99518.22
2022-12-15T23:23:05.868Z,99518.69
2022-12-15T23:25:33.337Z,99516.16
2022-12-15T23:28:01.356Z,99520.00
2022-12-15T23:30:29.092Z,99522.72
2022-12-15T23:32:56.443Z,99527.09
2022-12-15T23:35:23.864Z,99521.41
2022-12-15T23:37:51.176Z,99533.97
2022-12-15T23:40:22.404Z,99531.59
2022-12-15T23:42:50.714Z,99523.97
2022-12-15T23:45:21.048Z,99515.75
2022-12-15T23:47:48.518Z,99524.63
2022-12-15T23:50:15.908Z,99511.44
2022-12-15T23:52:43.242Z,99494.63
2022-12-15T23:55:11.170Z,99505.16
2022-12-15T23:57:39.306Z,99498.94
